sensor_id;sensor_type;location;lat;lon;timestamp;temperature;humidity
37678;DHT22;23517;50.390;8.616;2022-12-26T00:01:00;10.70;82.90
37678;DHT22;23517;50.390;8.616;2022-12-26T00:03:30;10.60;83.60
37678;DHT22;23517;50.390;8.616;2022-12-26T00:05:57;10.60;83.90
37678;DHT22;23517;50.390;8.616;2022-12-26T00:08:24;10.60;83.90
37678;DHT22;23517;50.390;8.616;2022-12-26T00:10:50;10.60;84.00
37678;DHT22;23517;50.390;8.616;2022-12-26T00:13:17;10.60;83.80
37678;DHT22;23517;50.390;8.616;2022-12-26T00:16:06;10.50;84.20
37678;DHT22;23517;50.390;8.616;2022-12-26T00:18:35;10.60;84.40
37678;DHT22;23517;50.390;8.616;2022-12-26T00:21:03;10.50;84.40
37678;DHT22;23517;50.390;8.616;2022-12-26T00:23:37;10.60;84.20
37678;DHT22;23517;50.390;8.616;2022-12-26T00:26:12;10.60;84.40
37678;DHT22;23517;50.390;8.616;2022-12-26T00:28:40;10.50;84.30
37678;DHT22;23517;50.390;8.616;2022-12-26T00:31:16;10.60;84.40
37678;DHT22;23517;50.390;8.616;2022-12-26T00:33:44;10.50;84.30
37678;DHT22;23517;50.390;8.616;2022-12-26T00:36:21;10.50;84.70
37678;DHT22;23517;50.390;8.616;2022-12-26T00:38:50;10.60;84.70
37678;DHT22;23517;50.390;8.616;2022-12-26T00:41:18;10.60;84.40
37678;DHT22;23517;50.390;8.616;2022-12-26T00:43:46;10.60;84.20
37678;DHT22;23517;50.390;8.616;2022-12-26T00:46:13;10.60;83.80
37678;DHT22;23517;50.390;8.616;2022-12-26T00:48:41;10.60;84.10
37678;DHT22;23517;50.390;8.616;2022-12-26T00:51:07;10.60;83.90
37678;DHT22;23517;50.390;8.616;2022-12-26T00:53:35;10.60;84.20
37678;DHT22;23517;50.390;8.616;2022-12-26T00:56:02;10.60;84.00
37678;DHT22;23517;50.390;8.616;2022-12-26T00:58:29;10.60;84.00
37678;DHT22;23517;50.390;8.616;2022-12-26T01:01:12;10.60;84.00
37678;DHT22;23517;50.390;8.616;2022-12-26T01:03:47;10.60;83.70
37678;DHT22;23517;50.390;8.616;2022-12-26T01:06:15;10.60;84.30
37678;DHT22;23517;50.390;8.616;2022-12-26T01:08:43;10.60;83.70
37678;DHT22;23517;50.390;8.616;2022-12-26T01:11:11;10.60;84.00
37678;DHT22;23517;50.390;8.616;2022-12-26T01:13:40;10.60;84.10
37678;DHT22;23517;50.390;8.616;2022-12-26T01:16:08;10.50;83.90
37678;DHT22;23517;50.390;8.616;2022-12-26T01:18:35;10.60;83.80
37678;DHT22;23517;50.390;8.616;2022-12-26T01:21:05;10.50;84.00
37678;DHT22;23517;50.390;8.616;2022-12-26T01:23:33;10.50;83.90
37678;DHT22;23517;50.390;8.616;2022-12-26T01:26:00;10.50;84.00
37678;DHT22;23517;50.390;8.616;2022-12-26T01:28:46;10.40;84.50
37678;DHT22;23517;50.390;8.616;2022-12-26T01:31:17;10.40;85.00
37678;DHT22;23517;50.390;8.616;2022-12-26T01:33:45;10.50;85.10
37678;DHT22;23517;50.390;8.616;2022-12-26T01:36:12;10.50;84.30
37678;DHT22;23517;50.390;8.616;2022-12-26T01:38:39;10.50;84.90
37678;DHT22;23517;50.390;8.616;2022-12-26T01:41:06;10.50;84.50
37678;DHT22;23517;50.390;8.616;2022-12-26T01:43:59;10.50;84.00
37678;DHT22;23517;50.390;8.616;2022-12-26T01:46:29;10.50;84.00
37678;DHT22;23517;50.390;8.616;2022-12-26T01:49:21;10.40;84.00
37678;DHT22;23517;50.390;8.616;2022-12-26T01:51:59;10.40;84.50
37678;DHT22;23517;50.390;8.616;2022-12-26T01:54:30;10.50;84.60
37678;DHT22;23517;50.390;8.616;2022-12-26T01:57:26;10.60;83.00
37678;DHT22;23517;50.390;8.616;2022-12-26T01:59:57;10.50;83.50
37678;DHT22;23517;50.390;8.616;2022-12-26T02:02:27;10.50;84.00
37678;DHT22;23517;50.390;8.616;2022-12-26T02:04:55;10.40;84.10
37678;DHT22;23517;50.390;8.616;2022-12-26T02:07:44;10.40;83.60
37678;DHT22;23517;50.390;8.616;2022-12-26T02:10:14;10.50;83.60
37678;DHT22;23517;50.390;8.616;2022-12-26T02:12:43;10.50;83.70
37678;DHT22;23517;50.390;8.616;2022-12-26T02:15:13;10.40;84.00
37678;DHT22;23517;50.390;8.616;2022-12-26T02:17:42;10.40;84.60
37678;DHT22;23517;50.390;8.616;2022-12-26T02:20:45;10.40;84.60
37678;DHT22;23517;50.390;8.616;2022-12-26T02:26:39;10.40;84.70
37678;DHT22;23517;50.390;8.616;2022-12-26T02:32:32;10.50;84.50
37678;DHT22;23517;50.390;8.616;2022-12-26T02:44:19;10.60;83.80
37678;DHT22;23517;50.390;8.616;2022-12-26T02:47:14;10.60;83.40
37678;DHT22;23517;50.390;8.616;2022-12-26T02:56:00;10.50;83.80
37678;DHT22;23517;50.390;8.616;2022-12-26T02:59:00;10.50;84.60
37678;DHT22;23517;50.390;8.616;2022-12-26T03:02:34;10.50;84.60
37678;DHT22;23517;50.390;8.616;2022-12-26T03:05:38;10.40;85.20
37678;DHT22;23517;50.390;8.616;2022-12-26T03:08:38;10.40;86.00
37678;DHT22;23517;50.390;8.616;2022-12-26T03:11:31;10.50;84.80
37678;DHT22;23517;50.390;8.616;2022-12-26T03:14:27;10.40;84.60
37678;DHT22;23517;50.390;8.616;2022-12-26T03:17:01;10.50;85.10
37678;DHT22;23517;50.390;8.616;2022-12-26T03:19:53;10.40;85.00
37678;DHT22;23517;50.390;8.616;2022-12-26T03:22:29;10.40;85.40
37678;DHT22;23517;50.390;8.616;2022-12-26T03:25:09;10.40;85.40
37678;DHT22;23517;50.390;8.616;2022-12-26T03:27:56;10.50;85.00
37678;DHT22;23517;50.390;8.616;2022-12-26T03:30:23;10.40;85.20
37678;DHT22;23517;50.390;8.616;2022-12-26T03:33:09;10.40;85.00
37678;DHT22;23517;50.390;8.616;2022-12-26T03:35:57;10.40;85.60
37678;DHT22;23517;50.390;8.616;2022-12-26T03:38:46;10.40;85.90
37678;DHT22;23517;50.390;8.616;2022-12-26T03:41:27;10.40;86.00
37678;DHT22;23517;50.390;8.616;2022-12-26T03:47:45;10.40;85.90
37678;DHT22;23517;50.390;8.616;2022-12-26T03:50:41;10.40;85.60
37678;DHT22;23517;50.390;8.616;2022-12-26T03:56:43;10.40;86.10
37678;DHT22;23517;50.390;8.616;2022-12-26T03:59:42;10.40;85.80
37678;DHT22;23517;50.390;8.616;2022-12-26T04:02:31;10.40;85.80
37678;DHT22;23517;50.390;8.616;2022-12-26T04:05:18;10.50;85.30
37678;DHT22;23517;50.390;8.616;2022-12-26T04:08:10;10.30;85.80
37678;DHT22;23517;50.390;8.616;2022-12-26T04:11:03;10.30;86.10
37678;DHT22;23517;50.390;8.616;2022-12-26T04:23:26;10.20;87.00
37678;DHT22;23517;50.390;8.616;2022-12-26T04:26:43;10.10;87.40
37678;DHT22;23517;50.390;8.616;2022-12-26T04:29:30;10.00;87.80
37678;DHT22;23517;50.390;8.616;2022-12-26T04:35:29;9.90;88.70
37678;DHT22;23517;50.390;8.616;2022-12-26T04:38:22;9.80;89.10
37678;DHT22;23517;50.390;8.616;2022-12-26T04:41:11;9.90;89.30
37678;DHT22;23517;50.390;8.616;2022-12-26T04:43:59;9.80;89.40
37678;DHT22;23517;50.390;8.616;2022-12-26T04:46:42;9.80;89.50
37678;DHT22;23517;50.390;8.616;2022-12-26T04:49:14;9.70;89.90
37678;DHT22;23517;50.390;8.616;2022-12-26T04:52:08;9.80;90.80
37678;DHT22;23517;50.390;8.616;2022-12-26T04:54:36;9.80;90.30
37678;DHT22;23517;50.390;8.616;2022-12-26T04:57:03;9.70;89.70
37678;DHT22;23517;50.390;8.616;2022-12-26T04:59:31;9.70;90.20
37678;DHT22;23517;50.390;8.616;2022-12-26T05:01:58;9.60;90.40
37678;DHT22;23517;50.390;8.616;2022-12-26T05:04:43;9.60;90.50
37678;DHT22;23517;50.390;8.616;2022-12-26T05:07:36;9.60;91.00
37678;DHT22;23517;50.390;8.616;2022-12-26T05:10:24;9.60;91.00
37678;DHT22;23517;50.390;8.616;2022-12-26T05:12:53;9.60;91.10
37678;DHT22;23517;50.390;8.616;2022-12-26T05:15:20;9.60;91.60
37678;DHT22;23517;50.390;8.616;2022-12-26T05:17:47;9.70;90.40
37678;DHT22;23517;50.390;8.616;2022-12-26T05:20:32;9.80;90.20
37678;DHT22;23517;50.390;8.616;2022-12-26T05:23:21;10.00;88.90
37678;DHT22;23517;50.390;8.616;2022-12-26T05:26:16;10.00;88.30
37678;DHT22;23517;50.390;8.616;2022-12-26T05:29:03;10.10;87.50
37678;DHT22;23517;50.390;8.616;2022-12-26T05:31:31;10.10;87.60
37678;DHT22;23517;50.390;8.616;2022-12-26T05:34:03;10.10;87.90
37678;DHT22;23517;50.390;8.616;2022-12-26T05:36:43;10.20;87.00
37678;DHT22;23517;50.390;8.616;2022-12-26T05:39:15;10.10;87.40
37678;DHT22;23517;50.390;8.616;2022-12-26T05:41:42;10.10;87.40
37678;DHT22;23517;50.390;8.616;2022-12-26T05:44:09;10.10;87.70
37678;DHT22;23517;50.390;8.616;2022-12-26T05:46:39;10.10;88.00
37678;DHT22;23517;50.390;8.616;2022-12-26T05:49:16;10.10;87.90
37678;DHT22;23517;50.390;8.616;2022-12-26T05:51:43;10.10;88.00
37678;DHT22;23517;50.390;8.616;2022-12-26T05:54:09;10.10;88.00
37678;DHT22;23517;50.390;8.616;2022-12-26T05:56:36;10.10;88.00
37678;DHT22;23517;50.390;8.616;2022-12-26T05:59:03;10.10;88.00
37678;DHT22;23517;50.390;8.616;2022-12-26T06:01:29;10.10;88.30
37678;DHT22;23517;50.390;8.616;2022-12-26T06:03:59;10.10;87.90
37678;DHT22;23517;50.390;8.616;2022-12-26T06:06:27;10.20;87.20
37678;DHT22;23517;50.390;8.616;2022-12-26T06:08:55;10.20;86.40
37678;DHT22;23517;50.390;8.616;2022-12-26T06:11:23;10.30;85.70
37678;DHT22;23517;50.390;8.616;2022-12-26T06:13:51;10.40;85.40
37678;DHT22;23517;50.390;8.616;2022-12-26T06:16:18;10.40;85.60
37678;DHT22;23517;50.390;8.616;2022-12-26T06:18:46;10.30;85.60
37678;DHT22;23517;50.390;8.616;2022-12-26T06:21:17;10.40;85.00
37678;DHT22;23517;50.390;8.616;2022-12-26T06:23:44;10.40;85.00
37678;DHT22;23517;50.390;8.616;2022-12-26T06:26:11;10.40;85.20
37678;DHT22;23517;50.390;8.616;2022-12-26T06:28:40;10.30;85.30
37678;DHT22;23517;50.390;8.616;2022-12-26T06:31:13;10.40;85.50
37678;DHT22;23517;50.390;8.616;2022-12-26T06:33:41;10.30;86.00
37678;DHT22;23517;50.390;8.616;2022-12-26T06:36:17;10.30;85.90
37678;DHT22;23517;50.390;8.616;2022-12-26T06:38:45;10.30;86.00
37678;DHT22;23517;50.390;8.616;2022-12-26T06:41:16;10.40;85.50
37678;DHT22;23517;50.390;8.616;2022-12-26T06:43:44;10.30;86.10
37678;DHT22;23517;50.390;8.616;2022-12-26T06:46:14;10.40;85.90
37678;DHT22;23517;50.390;8.616;2022-12-26T06:48:43;10.40;85.50
37678;DHT22;23517;50.390;8.616;2022-12-26T06:51:20;10.40;85.50
37678;DHT22;23517;50.390;8.616;2022-12-26T06:53:49;10.50;85.20
37678;DHT22;23517;50.390;8.616;2022-12-26T06:56:25;10.50;84.70
37678;DHT22;23517;50.390;8.616;2022-12-26T06:59:03;10.40;84.90
37678;DHT22;23517;50.390;8.616;2022-12-26T07:01:33;10.40;85.60
37678;DHT22;23517;50.390;8.616;2022-12-26T07:04:00;10.40;85.10
37678;DHT22;23517;50.390;8.616;2022-12-26T07:06:35;10.40;86.00
37678;DHT22;23517;50.390;8.616;2022-12-26T07:09:06;10.40;86.20
37678;DHT22;23517;50.390;8.616;2022-12-26T07:11:36;10.40;86.90
37678;DHT22;23517;50.390;8.616;2022-12-26T07:14:05;10.30;87.30
37678;DHT22;23517;50.390;8.616;2022-12-26T07:16:36;10.30;87.60
37678;DHT22;23517;50.390;8.616;2022-12-26T07:19:04;10.30;88.40
37678;DHT22;23517;50.390;8.616;2022-12-26T07:21:32;10.30;89.40
37678;DHT22;23517;50.390;8.616;2022-12-26T07:24:06;10.30;90.20
37678;DHT22;23517;50.390;8.616;2022-12-26T07:26:38;10.20;90.20
37678;DHT22;23517;50.390;8.616;2022-12-26T07:29:05;10.20;91.00
37678;DHT22;23517;50.390;8.616;2022-12-26T07:31:31;10.10;91.60
37678;DHT22;23517;50.390;8.616;2022-12-26T07:33:58;10.10;92.10
37678;DHT22;23517;50.390;8.616;2022-12-26T07:36:24;10.00;92.30
37678;DHT22;23517;50.390;8.616;2022-12-26T07:38:52;10.00;92.70
37678;DHT22;23517;50.390;8.616;2022-12-26T07:41:19;10.00;92.80
37678;DHT22;23517;50.390;8.616;2022-12-26T07:44:05;10.00;92.80
37678;DHT22;23517;50.390;8.616;2022-12-26T07:46:36;10.00;93.10
37678;DHT22;23517;50.390;8.616;2022-12-26T07:49:03;10.10;92.90
37678;DHT22;23517;50.390;8.616;2022-12-26T07:51:30;10.00;92.90
37678;DHT22;23517;50.390;8.616;2022-12-26T07:53:57;10.00;92.70
37678;DHT22;23517;50.390;8.616;2022-12-26T07:56:23;10.00;93.10
37678;DHT22;23517;50.390;8.616;2022-12-26T07:58:51;10.10;92.70
37678;DHT22;23517;50.390;8.616;2022-12-26T08:01:18;10.00;92.60
37678;DHT22;23517;50.390;8.616;2022-12-26T08:03:47;10.00;92.30
37678;DHT22;23517;50.390;8.616;2022-12-26T08:06:15;10.00;92.70
37678;DHT22;23517;50.390;8.616;2022-12-26T08:08:43;10.10;91.60
37678;DHT22;23517;50.390;8.616;2022-12-26T08:11:20;10.10;91.50
37678;DHT22;23517;50.390;8.616;2022-12-26T08:13:49;10.10;91.60
37678;DHT22;23517;50.390;8.616;2022-12-26T08:16:17;10.00;90.40
37678;DHT22;23517;50.390;8.616;2022-12-26T08:18:44;10.00;90.00
37678;DHT22;23517;50.390;8.616;2022-12-26T08:21:11;10.00;91.20
37678;DHT22;23517;50.390;8.616;2022-12-26T08:23:38;10.00;90.40
37678;DHT22;23517;50.390;8.616;2022-12-26T08:26:07;9.90;90.40
37678;DHT22;23517;50.390;8.616;2022-12-26T08:28:35;10.00;90.20
37678;DHT22;23517;50.390;8.616;2022-12-26T08:31:06;9.90;90.40
37678;DHT22;23517;50.390;8.616;2022-12-26T08:33:37;9.90;89.50
37678;DHT22;23517;50.390;8.616;2022-12-26T08:36:05;9.90;89.30
37678;DHT22;23517;50.390;8.616;2022-12-26T08:38:35;9.90;90.40
37678;DHT22;23517;50.390;8.616;2022-12-26T08:41:02;9.90;89.60
37678;DHT22;23517;50.390;8.616;2022-12-26T08:43:29;9.90;90.10
37678;DHT22;23517;50.390;8.616;2022-12-26T08:46:17;9.90;90.70
37678;DHT22;23517;50.390;8.616;2022-12-26T08:48:45;9.90;89.90
37678;DHT22;23517;50.390;8.616;2022-12-26T08:51:21;10.00;89.80
37678;DHT22;23517;50.390;8.616;2022-12-26T08:53:50;10.00;89.20
37678;DHT22;23517;50.390;8.616;2022-12-26T08:56:22;10.00;88.90
37678;DHT22;23517;50.390;8.616;2022-12-26T08:58:50;10.00;90.00
37678;DHT22;23517;50.390;8.616;2022-12-26T09:01:22;10.00;89.70
37678;DHT22;23517;50.390;8.616;2022-12-26T09:03:59;10.00;89.90
37678;DHT22;23517;50.390;8.616;2022-12-26T09:06:35;10.10;90.30
37678;DHT22;23517;50.390;8.616;2022-12-26T09:09:04;10.10;90.40
37678;DHT22;23517;50.390;8.616;2022-12-26T09:11:31;10.20;90.50
37678;DHT22;23517;50.390;8.616;2022-12-26T09:14:01;10.20;90.30
37678;DHT22;23517;50.390;8.616;2022-12-26T09:16:34;10.20;90.50
37678;DHT22;23517;50.390;8.616;2022-12-26T09:19:11;10.10;90.40
37678;DHT22;23517;50.390;8.616;2022-12-26T09:21:39;10.10;90.60
37678;DHT22;23517;50.390;8.616;2022-12-26T09:24:10;10.00;90.90
37678;DHT22;23517;50.390;8.616;2022-12-26T09:26:38;10.00;91.20
37678;DHT22;23517;50.390;8.616;2022-12-26T09:29:05;10.00;91.70
37678;DHT22;23517;50.390;8.616;2022-12-26T09:31:33;10.00;92.00
37678;DHT22;23517;50.390;8.616;2022-12-26T09:34:02;10.10;91.80
37678;DHT22;23517;50.390;8.616;2022-12-26T09:36:32;10.20;91.40
37678;DHT22;23517;50.390;8.616;2022-12-26T09:39:00;10.20;91.00
37678;DHT22;23517;50.390;8.616;2022-12-26T09:47:07;10.50;87.70
37678;DHT22;23517;50.390;8.616;2022-12-26T09:52:48;10.60;86.50
37678;DHT22;23517;50.390;8.616;2022-12-26T09:55:48;10.70;86.00
37678;DHT22;23517;50.390;8.616;2022-12-26T09:59:12;10.70;86.90
37678;DHT22;23517;50.390;8.616;2022-12-26T10:01:28;10.80;85.80
37678;DHT22;23517;50.390;8.616;2022-12-26T10:04:00;10.80;85.80
37678;DHT22;23517;50.390;8.616;2022-12-26T10:06:51;10.80;85.80
37678;DHT22;23517;50.390;8.616;2022-12-26T10:12:35;10.90;85.90
37678;DHT22;23517;50.390;8.616;2022-12-26T10:15:18;11.00;85.50
37678;DHT22;23517;50.390;8.616;2022-12-26T10:24:29;11.00;84.00
37678;DHT22;23517;50.390;8.616;2022-12-26T10:26:41;10.90;84.40
37678;DHT22;23517;50.390;8.616;2022-12-26T10:31:45;11.00;83.30
37678;DHT22;23517;50.390;8.616;2022-12-26T10:37:01;11.10;81.50
37678;DHT22;23517;50.390;8.616;2022-12-26T10:42:52;11.20;81.00
37678;DHT22;23517;50.390;8.616;2022-12-26T10:45:35;11.30;80.20
37678;DHT22;23517;50.390;8.616;2022-12-26T10:48:26;11.20;80.00
37678;DHT22;23517;50.390;8.616;2022-12-26T10:50:53;11.30;79.60
37678;DHT22;23517;50.390;8.616;2022-12-26T10:53:21;11.20;79.10
37678;DHT22;23517;50.390;8.616;2022-12-26T10:55:48;11.20;77.90
37678;DHT22;23517;50.390;8.616;2022-12-26T10:58:31;11.20;78.60
37678;DHT22;23517;50.390;8.616;2022-12-26T11:04:00;11.30;78.10
37678;DHT22;23517;50.390;8.616;2022-12-26T11:06:40;11.30;78.20
37678;DHT22;23517;50.390;8.616;2022-12-26T11:12:01;11.20;78.30
37678;DHT22;23517;50.390;8.616;2022-12-26T11:14:40;11.30;77.90
37678;DHT22;23517;50.390;8.616;2022-12-26T11:22:42;11.30;75.70
37678;DHT22;23517;50.390;8.616;2022-12-26T11:27:41;11.30;75.80
37678;DHT22;23517;50.390;8.616;2022-12-26T11:32:40;11.40;74.50
37678;DHT22;23517;50.390;8.616;2022-12-26T11:35:22;11.40;75.10
37678;DHT22;23517;50.390;8.616;2022-12-26T11:37:53;11.40;75.00
37678;DHT22;23517;50.390;8.616;2022-12-26T11:40:32;11.40;75.20
37678;DHT22;23517;50.390;8.616;2022-12-26T11:43:14;11.40;74.50
37678;DHT22;23517;50.390;8.616;2022-12-26T11:45:48;11.50;73.40
37678;DHT22;23517;50.390;8.616;2022-12-26T11:48:22;11.50;73.70
37678;DHT22;23517;50.390;8.616;2022-12-26T11:50:51;11.50;71.90
37678;DHT22;23517;50.390;8.616;2022-12-26T11:53:20;11.50;72.90
37678;DHT22;23517;50.390;8.616;2022-12-26T11:56:02;11.50;72.70
37678;DHT22;23517;50.390;8.616;2022-12-26T11:58:31;11.50;72.50
37678;DHT22;23517;50.390;8.616;2022-12-26T12:03:45;11.50;70.90
37678;DHT22;23517;50.390;8.616;2022-12-26T12:06:56;11.50;70.40
37678;DHT22;23517;50.390;8.616;2022-12-26T12:09:47;11.50;69.80
37678;DHT22;23517;50.390;8.616;2022-12-26T12:12:43;11.50;69.40
37678;DHT22;23517;50.390;8.616;2022-12-26T12:15:24;11.40;68.60
37678;DHT22;23517;50.390;8.616;2022-12-26T12:23:38;11.40;64.20
37678;DHT22;23517;50.390;8.616;2022-12-26T12:26:32;11.50;62.90
37678;DHT22;23517;50.390;8.616;2022-12-26T12:29:13;11.40;62.90
37678;DHT22;23517;50.390;8.616;2022-12-26T12:31:52;11.40;63.40
37678;DHT22;23517;50.390;8.616;2022-12-26T12:35:03;11.40;63.60
37678;DHT22;23517;50.390;8.616;2022-12-26T12:38:02;11.30;64.20
37678;DHT22;23517;50.390;8.616;2022-12-26T12:44:21;11.10;66.40
37678;DHT22;23517;50.390;8.616;2022-12-26T12:49:57;11.00;68.70
37678;DHT22;23517;50.390;8.616;2022-12-26T12:52:49;11.00;69.00
37678;DHT22;23517;50.390;8.616;2022-12-26T12:55:36;11.00;68.80
37678;DHT22;23517;50.390;8.616;2022-12-26T13:01:32;11.10;69.00
37678;DHT22;23517;50.390;8.616;2022-12-26T13:04:15;11.10;67.20
37678;DHT22;23517;50.390;8.616;2022-12-26T13:07:08;11.10;66.60
37678;DHT22;23517;50.390;8.616;2022-12-26T13:09:49;11.20;65.90
37678;DHT22;23517;50.390;8.616;2022-12-26T13:12:21;11.20;65.50
37678;DHT22;23517;50.390;8.616;2022-12-26T13:15:05;11.20;65.80
37678;DHT22;23517;50.390;8.616;2022-12-26T13:17:59;11.20;65.20
37678;DHT22;23517;50.390;8.616;2022-12-26T13:20:37;11.10;66.40
37678;DHT22;23517;50.390;8.616;2022-12-26T13:23:35;11.10;65.70
37678;DHT22;23517;50.390;8.616;2022-12-26T13:29:38;10.90;67.10
37678;DHT22;23517;50.390;8.616;2022-12-26T13:34:54;10.90;70.00
37678;DHT22;23517;50.390;8.616;2022-12-26T13:40:15;10.80;70.10
37678;DHT22;23517;50.390;8.616;2022-12-26T13:43:15;10.80;70.80
37678;DHT22;23517;50.390;8.616;2022-12-26T13:46:03;10.80;71.40
37678;DHT22;23517;50.390;8.616;2022-12-26T13:51:02;10.70;73.20
37678;DHT22;23517;50.390;8.616;2022-12-26T13:53:33;10.70;73.00
37678;DHT22;23517;50.390;8.616;2022-12-26T14:01:37;10.60;71.70
37678;DHT22;23517;50.390;8.616;2022-12-26T14:04:45;10.60;71.30
37678;DHT22;23517;50.390;8.616;2022-12-26T14:07:40;10.60;71.50
37678;DHT22;23517;50.390;8.616;2022-12-26T14:13:02;10.50;70.30
37678;DHT22;23517;50.390;8.616;2022-12-26T14:15:50;10.40;70.50
37678;DHT22;23517;50.390;8.616;2022-12-26T14:18:34;10.40;70.30
37678;DHT22;23517;50.390;8.616;2022-12-26T14:27:15;10.30;68.70
37678;DHT22;23517;50.390;8.616;2022-12-26T14:35:45;10.20;67.10
37678;DHT22;23517;50.390;8.616;2022-12-26T14:38:42;10.10;67.20
37678;DHT22;23517;50.390;8.616;2022-12-26T14:41:17;10.10;67.00
37678;DHT22;23517;50.390;8.616;2022-12-26T14:49:37;10.10;66.90
37678;DHT22;23517;50.390;8.616;2022-12-26T14:54:51;10.00;67.00
37678;DHT22;23517;50.390;8.616;2022-12-26T14:57:40;10.00;66.00
37678;DHT22;23517;50.390;8.616;2022-12-26T15:00:25;9.90;67.00
37678;DHT22;23517;50.390;8.616;2022-12-26T15:05:32;9.90;67.60
37678;DHT22;23517;50.390;8.616;2022-12-26T15:20:44;9.80;67.80
37678;DHT22;23517;50.390;8.616;2022-12-26T15:26:34;9.70;68.00
37678;DHT22;23517;50.390;8.616;2022-12-26T15:29:30;9.70;68.20
37678;DHT22;23517;50.390;8.616;2022-12-26T15:35:43;9.70;69.20
37678;DHT22;23517;50.390;8.616;2022-12-26T15:41:11;9.70;69.60
37678;DHT22;23517;50.390;8.616;2022-12-26T15:43:51;9.60;71.00
37678;DHT22;23517;50.390;8.616;2022-12-26T15:46:32;9.70;70.50
37678;DHT22;23517;50.390;8.616;2022-12-26T15:49:42;9.70;69.80
37678;DHT22;23517;50.390;8.616;2022-12-26T15:52:27;9.70;69.90
37678;DHT22;23517;50.390;8.616;2022-12-26T15:58:33;9.70;70.20
37678;DHT22;23517;50.390;8.616;2022-12-26T16:01:11;9.70;69.70
37678;DHT22;23517;50.390;8.616;2022-12-26T16:03:51;9.70;70.60
37678;DHT22;23517;50.390;8.616;2022-12-26T16:09:55;9.70;71.20
37678;DHT22;23517;50.390;8.616;2022-12-26T16:12:33;9.70;71.20
37678;DHT22;23517;50.390;8.616;2022-12-26T16:17:38;9.70;70.80
37678;DHT22;23517;50.390;8.616;2022-12-26T16:23:29;9.70;71.10
37678;DHT22;23517;50.390;8.616;2022-12-26T16:25:58;9.70;70.50
37678;DHT22;23517;50.390;8.616;2022-12-26T16:28:32;9.70;70.70
37678;DHT22;23517;50.390;8.616;2022-12-26T16:31:01;9.70;70.30
37678;DHT22;23517;50.390;8.616;2022-12-26T16:33:40;9.70;72.30
37678;DHT22;23517;50.390;8.616;2022-12-26T16:36:10;9.60;67.80
37678;DHT22;23517;50.390;8.616;2022-12-26T16:38:43;9.40;64.00
37678;DHT22;23517;50.390;8.616;2022-12-26T16:43:53;8.90;63.00
37678;DHT22;23517;50.390;8.616;2022-12-26T16:46:23;8.70;66.80
37678;DHT22;23517;50.390;8.616;2022-12-26T16:48:55;8.50;67.30
37678;DHT22;23517;50.390;8.616;2022-12-26T16:57:18;8.30;72.70
37678;DHT22;23517;50.390;8.616;2022-12-26T16:59:57;8.30;72.00
37678;DHT22;23517;50.390;8.616;2022-12-26T17:02:28;8.20;74.30
37678;DHT22;23517;50.390;8.616;2022-12-26T17:05:06;8.20;74.80
37678;DHT22;23517;50.390;8.616;2022-12-26T17:07:43;8.20;74.60
37678;DHT22;23517;50.390;8.616;2022-12-26T17:10:28;8.10;75.50
37678;DHT22;23517;50.390;8.616;2022-12-26T17:13:00;8.10;76.60
37678;DHT22;23517;50.390;8.616;2022-12-26T17:15:45;8.10;77.60
37678;DHT22;23517;50.390;8.616;2022-12-26T17:18:34;8.00;77.80
37678;DHT22;23517;50.390;8.616;2022-12-26T17:21:21;8.00;78.50
37678;DHT22;23517;50.390;8.616;2022-12-26T17:24:24;8.00;78.80
37678;DHT22;23517;50.390;8.616;2022-12-26T17:29:58;8.00;77.50
37678;DHT22;23517;50.390;8.616;2022-12-26T17:32:28;8.10;77.30
37678;DHT22;23517;50.390;8.616;2022-12-26T17:35:07;8.10;77.90
37678;DHT22;23517;50.390;8.616;2022-12-26T17:37:37;8.10;78.80
37678;DHT22;23517;50.390;8.616;2022-12-26T17:42:54;8.00;78.70
37678;DHT22;23517;50.390;8.616;2022-12-26T17:45:29;8.00;80.20
37678;DHT22;23517;50.390;8.616;2022-12-26T17:47:56;8.00;80.30
37678;DHT22;23517;50.390;8.616;2022-12-26T17:50:35;8.00;80.00
37678;DHT22;23517;50.390;8.616;2022-12-26T17:53:25;8.00;80.20
37678;DHT22;23517;50.390;8.616;2022-12-26T17:56:01;8.00;79.90
37678;DHT22;23517;50.390;8.616;2022-12-26T17:58:29;7.90;78.20
37678;DHT22;23517;50.390;8.616;2022-12-26T18:01:02;7.90;78.00
37678;DHT22;23517;50.390;8.616;2022-12-26T18:03:29;7.80;77.80
37678;DHT22;23517;50.390;8.616;2022-12-26T18:05:56;7.80;77.10
37678;DHT22;23517;50.390;8.616;2022-12-26T18:11:02;7.70;77.90
37678;DHT22;23517;50.390;8.616;2022-12-26T18:13:31;7.60;77.80
37678;DHT22;23517;50.390;8.616;2022-12-26T18:16:01;7.60;78.50
37678;DHT22;23517;50.390;8.616;2022-12-26T18:18:40;7.50;77.80
37678;DHT22;23517;50.390;8.616;2022-12-26T18:21:11;7.50;78.10
37678;DHT22;23517;50.390;8.616;2022-12-26T18:23:39;7.50;79.20
37678;DHT22;23517;50.390;8.616;2022-12-26T18:26:12;7.50;76.70
37678;DHT22;23517;50.390;8.616;2022-12-26T18:28:50;7.50;77.20
37678;DHT22;23517;50.390;8.616;2022-12-26T18:31:17;7.50;76.70
37678;DHT22;23517;50.390;8.616;2022-12-26T18:33:44;7.40;75.70
37678;DHT22;23517;50.390;8.616;2022-12-26T18:36:15;7.40;75.50
37678;DHT22;23517;50.390;8.616;2022-12-26T18:38:42;7.40;74.50
37678;DHT22;23517;50.390;8.616;2022-12-26T18:41:13;7.40;75.10
37678;DHT22;23517;50.390;8.616;2022-12-26T18:43:42;7.50;75.70
37678;DHT22;23517;50.390;8.616;2022-12-26T18:46:15;7.50;74.40
37678;DHT22;23517;50.390;8.616;2022-12-26T18:48:43;7.50;73.80
37678;DHT22;23517;50.390;8.616;2022-12-26T18:51:10;7.50;72.50
37678;DHT22;23517;50.390;8.616;2022-12-26T18:53:37;7.50;71.60
37678;DHT22;23517;50.390;8.616;2022-12-26T18:56:05;7.50;69.60
37678;DHT22;23517;50.390;8.616;2022-12-26T18:58:32;7.50;70.50
37678;DHT22;23517;50.390;8.616;2022-12-26T19:01:00;7.40;69.20
37678;DHT22;23517;50.390;8.616;2022-12-26T19:03:28;7.40;67.20
37678;DHT22;23517;50.390;8.616;2022-12-26T19:05:55;7.30;64.60
37678;DHT22;23517;50.390;8.616;2022-12-26T19:08:21;7.30;64.50
37678;DHT22;23517;50.390;8.616;2022-12-26T19:10:48;7.20;63.60
37678;DHT22;23517;50.390;8.616;2022-12-26T19:13:15;7.10;60.60
37678;DHT22;23517;50.390;8.616;2022-12-26T19:15:45;7.00;61.10
37678;DHT22;23517;50.390;8.616;2022-12-26T19:18:12;7.00;61.30
37678;DHT22;23517;50.390;8.616;2022-12-26T19:20:39;6.90;61.00
37678;DHT22;23517;50.390;8.616;2022-12-26T19:23:10;6.90;60.50
37678;DHT22;23517;50.390;8.616;2022-12-26T19:25:37;6.80;61.30
37678;DHT22;23517;50.390;8.616;2022-12-26T19:28:03;6.80;62.30
37678;DHT22;23517;50.390;8.616;2022-12-26T19:30:30;6.70;63.10
37678;DHT22;23517;50.390;8.616;2022-12-26T19:33:04;6.60;63.50
37678;DHT22;23517;50.390;8.616;2022-12-26T19:35:31;6.60;63.80
37678;DHT22;23517;50.390;8.616;2022-12-26T19:37:57;6.60;63.30
37678;DHT22;23517;50.390;8.616;2022-12-26T19:40:25;6.60;63.20
37678;DHT22;23517;50.390;8.616;2022-12-26T19:42:52;6.60;61.80
37678;DHT22;23517;50.390;8.616;2022-12-26T19:45:19;6.60;60.70